createdAt,value
2023-04-05T00:00:39.282Z,59.38
2023-04-05T00:05:41.103Z,59.28
2023-04-05T00:10:42.906Z,59.00
2023-04-05T00:15:44.708Z,59.71
2023-04-05T00:20:46.304Z,60.19
2023-04-05T00:25:48.073Z,59.94
2023-04-05T00:30:52.288Z,59.84
2023-04-05T00:35:54.035Z,59.25
2023-04-05T00:40:55.802Z,58.93
2023-04-05T00:45:57.552Z,58.70
2023-04-05T00:50:59.899Z,59.31
2023-04-05T00:56:02.114Z,59.10
2023-04-05T01:01:16.512Z,59.55
2023-04-05T01:06:39.216Z,59.14
2023-04-05T01:11:42.904Z,58.46
2023-04-05T01:16:45.534Z,58.37
2023-04-05T01:22:18.349Z,58.02
2023-04-05T01:27:22.537Z,58.42
2023-04-05T01:32:36.617Z,58.68
2023-04-05T01:37:38.978Z,58.59
2023-04-05T01:42:40.607Z,58.45
2023-04-05T01:47:43.502Z,59.18
2023-04-05T01:52:45.579Z,59.15
2023-04-05T01:57:47.178Z,59.32
2023-04-05T02:02:48.929Z,59.72
2023-04-05T02:07:50.733Z,59.97
2023-04-05T02:12:52.374Z,59.76
2023-04-05T02:17:54.151Z,59.85
2023-04-05T02:22:56.834Z,60.11
2023-04-05T02:27:58.440Z,59.91
2023-04-05T02:33:00.102Z,60.05
2023-04-05T02:38:04.659Z,60.89
2023-04-05T02:43:08.943Z,60.36
2023-04-05T02:48:10.656Z,60.48
2023-04-05T02:53:13.085Z,60.25
2023-04-05T02:58:14.761Z,60.76
2023-04-05T03:03:22.121Z,61.47
2023-04-05T03:08:24.096Z,60.94
2023-04-05T03:13:35.949Z,61.32
2023-04-05T03:18:40.792Z,61.32
2023-04-05T03:23:48.503Z,61.54
2023-04-05T03:28:54.121Z,61.92
2023-04-05T03:34:02.030Z,61.75
2023-04-05T03:39:13.370Z,62.17
2023-04-05T03:44:15.016Z,62.12
2023-04-05T03:49:16.788Z,61.89
2023-04-05T03:54:19.370Z,62.23
2023-04-05T03:59:21.297Z,62.33
2023-04-05T04:04:23.777Z,62.10
2023-04-05T04:09:25.735Z,61.82
2023-04-05T04:14:27.430Z,62.63
2023-04-05T04:19:32.099Z,62.46
2023-04-05T04:24:46.192Z,62.52
2023-04-05T04:30:11.856Z,61.95
2023-04-05T04:35:47.125Z,62.23
2023-04-05T04:41:17.676Z,63.06
2023-04-05T04:46:43.203Z,63.47
2023-04-05T04:51:59.700Z,64.31
2023-04-05T04:57:02.453Z,65.22
2023-04-05T05:02:04.034Z,64.75
2023-04-05T05:07:05.897Z,64.11
2023-04-05T05:12:08.791Z,64.81
2023-04-05T05:17:10.410Z,64.06
2023-04-05T05:22:12.086Z,63.32
2023-04-05T05:27:14.723Z,63.04
2023-04-05T05:32:17.053Z,62.82
2023-04-05T05:37:18.812Z,62.29
2023-04-05T05:42:21.277Z,61.43
2023-04-05T05:47:23.044Z,61.13
2023-04-05T05:52:24.964Z,60.88
2023-04-05T05:57:27.365Z,59.79
2023-04-05T06:02:28.992Z,60.01
2023-04-05T06:07:30.829Z,58.51
2023-04-05T06:12:32.807Z,58.30
2023-04-05T06:17:36.278Z,57.26
2023-04-05T06:22:40.757Z,56.89
2023-04-05T06:27:42.604Z,56.94
2023-04-05T06:32:44.619Z,57.20
2023-04-05T06:37:46.275Z,57.02
2023-04-05T06:42:47.874Z,56.50
2023-04-05T06:47:55.004Z,55.51
2023-04-05T06:52:56.906Z,55.58
2023-04-05T06:57:58.516Z,54.61
2023-04-05T07:03:00.290Z,54.83
2023-04-05T07:08:01.916Z,53.92
2023-04-05T07:13:03.613Z,53.55
2023-04-05T07:18:05.558Z,53.06
2023-04-05T07:23:07.438Z,53.17
2023-04-05T07:28:09.038Z,53.28
2023-04-05T07:33:11.071Z,52.88
2023-04-05T07:38:12.784Z,52.64
2023-04-05T07:43:14.385Z,52.65
2023-04-05T07:48:17.042Z,52.06
2023-04-05T07:53:18.634Z,51.65
2023-04-05T07:58:22.596Z,51.66
2023-04-05T08:03:24.401Z,51.14
2023-04-05T08:08:26.226Z,50.87
2023-04-05T08:13:27.854Z,53.05
2023-04-05T08:18:29.498Z,51.92
2023-04-05T08:23:31.937Z,51.87
2023-04-05T08:28:34.395Z,51.29
2023-04-05T08:33:35.962Z,51.16
2023-04-05T08:38:37.609Z,51.55
2023-04-05T08:43:53.236Z,49.74
2023-04-05T08:48:54.886Z,50.14
2023-04-05T08:53:56.483Z,49.07
2023-04-05T08:59:08.536Z,49.16
2023-04-05T09:04:14.548Z,49.75
2023-04-05T09:09:17.078Z,49.75
2023-04-05T09:14:19.238Z,49.89
2023-04-05T09:19:20.960Z,49.96
2023-04-05T09:24:41.861Z,48.60
2023-04-05T09:29:47.836Z,48.46
2023-04-05T09:34:52.514Z,48.41
2023-04-05T09:40:04.310Z,50.22
2023-04-05T09:45:07.280Z,48.54
2023-04-05T09:50:20.262Z,47.32
2023-04-05T09:55:28.834Z,47.34
2023-04-05T10:00:32.367Z,46.65
2023-04-05T10:05:34.149Z,48.50
2023-04-05T10:10:38.418Z,46.48
2023-04-05T10:15:41.398Z,45.06
2023-04-05T10:20:47.419Z,45.05
2023-04-05T10:25:53.163Z,45.56
2023-04-05T10:31:30.417Z,45.75
2023-04-05T10:36:56.681Z,46.13
2023-04-05T10:42:21.007Z,46.46
2023-04-05T10:47:23.748Z,47.52
2023-04-05T10:52:26.388Z,46.51
2023-04-05T10:57:28.198Z,47.11
2023-04-05T11:02:30.406Z,45.52
2023-04-05T11:07:45.473Z,45.82
2023-04-05T11:12:47.090Z,45.14
2023-04-05T11:18:08.889Z,46.19
2023-04-05T11:23:12.232Z,44.77
2023-04-05T11:28:25.050Z,44.38
2023-04-05T11:33:37.724Z,44.31
2023-04-05T11:38:42.391Z,43.92
2023-04-05T11:43:45.074Z,45.27
2023-04-05T11:48:50.401Z,45.43
2023-04-05T11:53:51.982Z,45.31
2023-04-05T11:58:58.418Z,45.09
2023-04-05T12:04:00.841Z,44.90
2023-04-05T12:09:07.536Z,44.10
2023-04-05T12:14:09.236Z,44.80
2023-04-05T12:19:11.065Z,43.47
2023-04-05T12:24:12.829Z,45.06
2023-04-05T12:29:14.462Z,46.69
2023-04-05T12:34:23.903Z,44.34
2023-04-05T12:39:29.594Z,44.29
2023-04-05T12:44:31.685Z,44.83
2023-04-05T12:49:39.608Z,45.47
2023-04-05T12:54:41.229Z,44.97
2023-04-05T12:59:42.824Z,43.82
2023-04-05T13:04:44.442Z,44.96
2023-04-05T13:09:46.037Z,43.84
2023-04-05T13:14:47.723Z,43.38
2023-04-05T13:19:49.297Z,43.49
2023-04-05T13:24:52.158Z,44.42
2023-04-05T13:29:53.915Z,43.91
2023-04-05T13:34:55.716Z,43.06
2023-04-05T13:39:57.390Z,43.24
2023-04-05T13:44:59.091Z,43.23
2023-04-05T13:50:00.868Z,42.73
2023-04-05T13:55:03.765Z,44.79
2023-04-05T14:00:08.961Z,45.69
2023-04-05T14:05:15.462Z,42.80
2023-04-05T14:10:17.763Z,44.16
2023-04-05T14:15:19.734Z,45.79
2023-04-05T14:20:21.506Z,46.10
2023-04-05T14:25:23.169Z,47.26
2023-04-05T14:30:24.854Z,45.45
2023-04-05T14:35:26.688Z,46.04
2023-04-05T14:40:28.451Z,45.06
2023-04-05T14:45:30.259Z,45.07
2023-04-05T14:50:32.590Z,44.29
2023-04-05T14:55:34.272Z,44.98
2023-04-05T15:00:36.022Z,46.14
2023-04-05T15:05:37.741Z,44.84
2023-04-05T15:10:40.505Z,45.20
2023-04-05T15:15:42.360Z,46.29
2023-04-05T15:20:44.124Z,47.05
2023-04-05T15:25:46.587Z,44.86
2023-04-05T15:30:48.344Z,45.18
2023-04-05T15:35:50.043Z,44.74
2023-04-05T15:40:52.639Z,45.09
2023-04-05T15:45:54.442Z,45.92
2023-04-05T15:50:56.195Z,45.84
2023-04-05T15:55:58.395Z,45.91
2023-04-05T16:01:00.193Z,45.31
2023-04-05T16:06:02.276Z,47.34
2023-04-05T16:11:04.061Z,45.55
2023-04-05T16:16:06.825Z,47.28
2023-04-05T16:21:08.619Z,46.06
2023-04-05T16:26:10.324Z,45.75
2023-04-05T16:31:12.476Z,46.36
2023-04-05T16:36:14.229Z,46.10
2023-04-05T16:41:16.266Z,45.58
2023-04-05T16:46:18.628Z,46.61
2023-04-05T16:51:20.398Z,47.88
2023-04-05T16:56:22.864Z,48.57
2023-04-05T17:01:24.887Z,47.83
2023-04-05T17:06:27.919Z,49.29
2023-04-05T17:11:30.099Z,48.36
2023-04-05T17:16:31.776Z,48.49
2023-04-05T17:21:35.359Z,48.43
2023-04-05T17:26:37.085Z,46.67
2023-04-05T17:31:39.600Z,46.67
2023-04-05T17:36:41.444Z,46.68
2023-04-05T17:41:45.615Z,46.59
2023-04-05T17:46:54.299Z,47.35
2023-04-05T17:52:04.820Z,47.54
2023-04-05T17:57:07.014Z,48.19
2023-04-05T18:02:11.012Z,48.70
2023-04-05T18:07:13.002Z,48.21
2023-04-05T18:12:14.686Z,48.11
2023-04-05T18:17:17.844Z,48.84
2023-04-05T18:22:20.267Z,48.88
2023-04-05T18:27:21.973Z,48.90
2023-04-05T18:32:23.873Z,49.64
2023-04-05T18:37:25.678Z,49.81
2023-04-05T18:42:27.352Z,50.27
2023-04-05T18:47:29.169Z,50.26
2023-04-05T18:52:34.136Z,50.55
2023-04-05T18:57:36.052Z,50.88
2023-04-05T19:02:37.885Z,50.62
2023-04-05T19:07:39.670Z,50.73
2023-04-05T19:12:41.639Z,50.73
2023-04-05T19:17:43.383Z,51.31
2023-04-05T19:22:45.268Z,51.33
2023-04-05T19:27:47.006Z,52.16
2023-04-05T19:32:49.022Z,52.18
2023-04-05T19:37:50.906Z,52.27
2023-04-05T19:42:52.885Z,51.93
2023-04-05T19:47:55.624Z,52.63
2023-04-05T19:52:57.743Z,53.31
2023-04-05T19:58:01.426Z,53.26
2023-04-05T20:03:18.656Z,52.45
2023-04-05T20:08:20.422Z,53.19
2023-04-05T20:13:22.202Z,52.83
2023-04-05T20:18:25.943Z,53.23
2023-04-05T20:23:29.318Z,53.14
2023-04-05T20:28:41.973Z,53.54
2023-04-05T20:33:47.142Z,53.34
2023-04-05T20:38:50.059Z,53.54
2023-04-05T20:43:52.658Z,53.82
2023-04-05T20:48:55.092Z,53.52
2023-04-05T20:53:57.125Z,54.20
2023-04-05T20:58:59.147Z,53.98
2023-04-05T21:04:01.209Z,54.43
2023-04-05T21:09:03.105Z,54.71
2023-04-05T21:14:04.985Z,54.94
2023-04-05T21:19:07.950Z,55.40
2023-04-05T21:24:10.133Z,55.72
2023-04-05T21:29:11.913Z,55.90
2023-04-05T21:34:13.590Z,56.32
2023-04-05T21:39:15.368Z,57.64
2023-04-05T21:44:17.033Z,57.61
2023-04-05T21:49:18.747Z,57.86
2023-04-05T21:54:20.452Z,58.89
2023-04-05T21:59:22.449Z,58.62
2023-04-05T22:04:26.540Z,58.04
2023-04-05T22:09:28.587Z,58.83
2023-04-05T22:14:30.673Z,59.30
2023-04-05T22:19:32.416Z,59.99
2023-04-05T22:24:34.106Z,60.04
2023-04-05T22:29:36.139Z,60.52
2023-04-05T22:34:37.899Z,60.57
2023-04-05T22:39:39.575Z,61.46
2023-04-05T22:44:41.518Z,61.70
2023-04-05T22:49:43.301Z,62.06
2023-04-05T22:54:44.961Z,62.63
2023-04-05T22:59:46.749Z,62.99
2023-04-05T23:04:48.566Z,62.87
2023-04-05T23:09:50.250Z,62.73
2023-04-05T23:14:52.048Z,63.96
2023-04-05T23:19:53.805Z,63.94
2023-04-05T23:24:55.652Z,64.03
2023-04-05T23:29:57.483Z,64.70
2023-04-05T23:34:59.147Z,65.06
2023-04-05T23:40:00.920Z,64.99
2023-04-05T23:45:04.304Z,65.23
2023-04-05T23:50:06.752Z,65.78
2023-04-05T23:55:08.940Z,65.77
